Terminal Aerodrome Forecast
Issued by NWS La Crosse, WI

Home | Current Version | Previous Version | Text Only | Print | Product List | Glossary On
Versions: 1 2 3 4 5 6 7 8 9 10 11 12 13 14 15 16 17 18 19 20 21 22 23 24 25 26 27 28 29 30 31 32
000
FTUS43 KARX 201725
TAFRST
TAF
KRST 201725Z 2018/2118 14008KT 1/4SM FG VV002
      TEMPO 2020/2024 1SM BR OVC004
     FM211000 10008KT 3/4SM -RA BR OVC003
     FM211500 13009KT 1/4SM -DZ FG OVC002=

USA.gov is the U.S. government's official web portal to all federal, state and local government web resources and services.